sensor_id;sensor_type;location;lat;lon;timestamp;temperature;humidity
24426;DHT22;12611;44.446;26.000;2022-09-12T00:01:18;21.30;79.70
24426;DHT22;12611;44.446;26.000;2022-09-12T00:03:47;21.30;79.80
24426;DHT22;12611;44.446;26.000;2022-09-12T00:06:17;21.30;80.20
24426;DHT22;12611;44.446;26.000;2022-09-12T00:08:49;21.20;80.40
24426;DHT22;12611;44.446;26.000;2022-09-12T00:11:17;21.20;80.40
24426;DHT22;12611;44.446;26.000;2022-09-12T00:13:45;21.20;80.60
24426;DHT22;12611;44.446;26.000;2022-09-12T00:16:17;21.10;80.60
24426;DHT22;12611;44.446;26.000;2022-09-12T00:18:46;21.10;80.80
24426;DHT22;12611;44.446;26.000;2022-09-12T00:21:15;21.20;80.90
24426;DHT22;12611;44.446;26.000;2022-09-12T00:23:45;21.20;81.00
24426;DHT22;12611;44.446;26.000;2022-09-12T00:26:14;21.20;80.90
24426;DHT22;12611;44.446;26.000;2022-09-12T00:28:43;21.20;81.00
24426;DHT22;12611;44.446;26.000;2022-09-12T00:31:14;21.20;80.80
24426;DHT22;12611;44.446;26.000;2022-09-12T00:33:45;21.20;80.80
24426;DHT22;12611;44.446;26.000;2022-09-12T00:36:15;21.20;80.70
24426;DHT22;12611;44.446;26.000;2022-09-12T00:38:44;21.20;80.60
24426;DHT22;12611;44.446;26.000;2022-09-12T00:41:17;21.20;80.50
24426;DHT22;12611;44.446;26.000;2022-09-12T00:43:47;21.20;80.50
24426;DHT22;12611;44.446;26.000;2022-09-12T00:46:25;21.20;80.30
24426;DHT22;12611;44.446;26.000;2022-09-12T00:48:58;21.30;80.20
24426;DHT22;12611;44.446;26.000;2022-09-12T00:51:28;21.20;80.10
24426;DHT22;12611;44.446;26.000;2022-09-12T00:53:59;21.20;80.10
24426;DHT22;12611;44.446;26.000;2022-09-12T00:56:30;21.20;80.10
24426;DHT22;12611;44.446;26.000;2022-09-12T00:59:02;21.20;80.20
24426;DHT22;12611;44.446;26.000;2022-09-12T01:01:32;21.10;80.10
24426;DHT22;12611;44.446;26.000;2022-09-12T01:04:02;21.10;80.20
24426;DHT22;12611;44.446;26.000;2022-09-12T01:06:34;21.10;81.10
24426;DHT22;12611;44.446;26.000;2022-09-12T01:09:03;21.10;80.40
24426;DHT22;12611;44.446;26.000;2022-09-12T01:11:33;21.10;80.40
24426;DHT22;12611;44.446;26.000;2022-09-12T01:14:03;21.10;80.50
24426;DHT22;12611;44.446;26.000;2022-09-12T01:16:33;21.00;80.60
24426;DHT22;12611;44.446;26.000;2022-09-12T01:19:16;21.00;80.50
24426;DHT22;12611;44.446;26.000;2022-09-12T01:21:58;21.00;80.50
24426;DHT22;12611;44.446;26.000;2022-09-12T01:24:51;21.00;80.40
24426;DHT22;12611;44.446;26.000;2022-09-12T01:30:23;20.90;80.40
24426;DHT22;12611;44.446;26.000;2022-09-12T01:35:52;20.90;80.40
24426;DHT22;12611;44.446;26.000;2022-09-12T01:38:32;20.90;80.40
24426;DHT22;12611;44.446;26.000;2022-09-12T01:41:09;20.80;80.40
24426;DHT22;12611;44.446;26.000;2022-09-12T01:43:44;20.80;80.40
24426;DHT22;12611;44.446;26.000;2022-09-12T01:46:18;20.80;80.30
24426;DHT22;12611;44.446;26.000;2022-09-12T01:48:51;20.80;80.30
24426;DHT22;12611;44.446;26.000;2022-09-12T01:51:25;20.80;80.40
24426;DHT22;12611;44.446;26.000;2022-09-12T01:53:58;20.80;80.40
24426;DHT22;12611;44.446;26.000;2022-09-12T01:56:32;20.80;80.50
24426;DHT22;12611;44.446;26.000;2022-09-12T01:59:05;20.80;80.50
24426;DHT22;12611;44.446;26.000;2022-09-12T02:01:40;20.80;80.50
24426;DHT22;12611;44.446;26.000;2022-09-12T02:04:14;20.80;80.50
24426;DHT22;12611;44.446;26.000;2022-09-12T02:06:48;20.80;80.60
24426;DHT22;12611;44.446;26.000;2022-09-12T02:09:20;20.80;80.70
24426;DHT22;12611;44.446;26.000;2022-09-12T02:11:52;20.70;80.70
24426;DHT22;12611;44.446;26.000;2022-09-12T02:14:24;20.70;80.80
24426;DHT22;12611;44.446;26.000;2022-09-12T02:16:58;20.70;80.90
24426;DHT22;12611;44.446;26.000;2022-09-12T02:19:32;20.60;81.00
24426;DHT22;12611;44.446;26.000;2022-09-12T02:22:03;20.60;81.00
24426;DHT22;12611;44.446;26.000;2022-09-12T02:24:36;20.60;80.90
24426;DHT22;12611;44.446;26.000;2022-09-12T02:27:10;20.60;80.90
24426;DHT22;12611;44.446;26.000;2022-09-12T02:29:41;20.60;80.90
24426;DHT22;12611;44.446;26.000;2022-09-12T02:32:18;20.60;80.90
24426;DHT22;12611;44.446;26.000;2022-09-12T02:34:53;20.50;80.90
24426;DHT22;12611;44.446;26.000;2022-09-12T02:37:34;20.50;80.90
24426;DHT22;12611;44.446;26.000;2022-09-12T02:40:06;20.50;81.00
24426;DHT22;12611;44.446;26.000;2022-09-12T02:42:36;20.50;80.90
24426;DHT22;12611;44.446;26.000;2022-09-12T02:45:05;20.50;81.70
24426;DHT22;12611;44.446;26.000;2022-09-12T02:47:38;20.50;80.80
24426;DHT22;12611;44.446;26.000;2022-09-12T02:50:09;20.50;80.80
24426;DHT22;12611;44.446;26.000;2022-09-12T02:52:39;20.50;81.10
24426;DHT22;12611;44.446;26.000;2022-09-12T02:55:08;20.50;80.80
24426;DHT22;12611;44.446;26.000;2022-09-12T02:57:38;20.50;80.70
24426;DHT22;12611;44.446;26.000;2022-09-12T03:00:07;20.50;80.60
24426;DHT22;12611;44.446;26.000;2022-09-12T03:05:33;20.40;80.50
24426;DHT22;12611;44.446;26.000;2022-09-12T03:08:17;20.40;80.40
24426;DHT22;12611;44.446;26.000;2022-09-12T03:11:07;20.40;80.40
24426;DHT22;12611;44.446;26.000;2022-09-12T03:13:43;20.40;80.40
24426;DHT22;12611;44.446;26.000;2022-09-12T03:16:21;20.40;80.40
24426;DHT22;12611;44.446;26.000;2022-09-12T03:18:59;20.40;80.40
24426;DHT22;12611;44.446;26.000;2022-09-12T03:21:32;20.30;80.30
24426;DHT22;12611;44.446;26.000;2022-09-12T03:24:11;20.30;80.30
24426;DHT22;12611;44.446;26.000;2022-09-12T03:26:44;20.30;80.30
24426;DHT22;12611;44.446;26.000;2022-09-12T03:29:15;20.30;81.20
24426;DHT22;12611;44.446;26.000;2022-09-12T03:31:49;20.20;80.60
24426;DHT22;12611;44.446;26.000;2022-09-12T03:34:21;20.20;80.60
24426;DHT22;12611;44.446;26.000;2022-09-12T03:36:49;20.10;80.60
24426;DHT22;12611;44.446;26.000;2022-09-12T03:39:18;20.10;80.80
24426;DHT22;12611;44.446;26.000;2022-09-12T03:41:46;20.10;80.80
24426;DHT22;12611;44.446;26.000;2022-09-12T03:44:15;20.10;80.90
24426;DHT22;12611;44.446;26.000;2022-09-12T03:46:43;20.00;80.90
24426;DHT22;12611;44.446;26.000;2022-09-12T03:49:12;20.00;81.00
24426;DHT22;12611;44.446;26.000;2022-09-12T03:51:42;20.00;81.20
24426;DHT22;12611;44.446;26.000;2022-09-12T03:54:11;19.90;81.20
24426;DHT22;12611;44.446;26.000;2022-09-12T03:56:39;19.90;81.30
24426;DHT22;12611;44.446;26.000;2022-09-12T03:59:08;19.90;81.30
24426;DHT22;12611;44.446;26.000;2022-09-12T04:01:36;19.90;81.40
24426;DHT22;12611;44.446;26.000;2022-09-12T04:04:04;19.80;81.50
24426;DHT22;12611;44.446;26.000;2022-09-12T04:06:33;19.80;81.50
24426;DHT22;12611;44.446;26.000;2022-09-12T04:09:03;19.80;81.60
24426;DHT22;12611;44.446;26.000;2022-09-12T04:11:31;19.80;81.60
24426;DHT22;12611;44.446;26.000;2022-09-12T04:14:01;19.80;81.70
24426;DHT22;12611;44.446;26.000;2022-09-12T04:16:30;19.70;81.70
24426;DHT22;12611;44.446;26.000;2022-09-12T04:18:58;19.80;81.80
24426;DHT22;12611;44.446;26.000;2022-09-12T04:21:27;19.70;81.70
24426;DHT22;12611;44.446;26.000;2022-09-12T04:23:55;19.80;81.90
24426;DHT22;12611;44.446;26.000;2022-09-12T04:26:25;19.70;81.80
24426;DHT22;12611;44.446;26.000;2022-09-12T04:28:55;19.70;81.80
24426;DHT22;12611;44.446;26.000;2022-09-12T04:31:24;19.70;81.90
24426;DHT22;12611;44.446;26.000;2022-09-12T04:33:53;19.70;82.00
24426;DHT22;12611;44.446;26.000;2022-09-12T04:36:22;19.70;82.10
24426;DHT22;12611;44.446;26.000;2022-09-12T04:38:51;19.70;82.10
24426;DHT22;12611;44.446;26.000;2022-09-12T04:41:22;19.70;82.20
24426;DHT22;12611;44.446;26.000;2022-09-12T04:43:53;19.70;82.10
24426;DHT22;12611;44.446;26.000;2022-09-12T04:46:24;19.70;82.10
24426;DHT22;12611;44.446;26.000;2022-09-12T04:48:53;19.70;82.10
24426;DHT22;12611;44.446;26.000;2022-09-12T04:51:24;19.70;82.10
24426;DHT22;12611;44.446;26.000;2022-09-12T04:53:55;19.70;82.20
24426;DHT22;12611;44.446;26.000;2022-09-12T04:56:24;19.70;82.20
24426;DHT22;12611;44.446;26.000;2022-09-12T04:58:56;19.70;82.10
24426;DHT22;12611;44.446;26.000;2022-09-12T05:01:25;19.70;82.10
24426;DHT22;12611;44.446;26.000;2022-09-12T05:03:54;19.70;82.10
24426;DHT22;12611;44.446;26.000;2022-09-12T05:06:25;19.70;82.20
24426;DHT22;12611;44.446;26.000;2022-09-12T05:08:54;19.70;82.20
24426;DHT22;12611;44.446;26.000;2022-09-12T05:11:25;19.70;82.10
24426;DHT22;12611;44.446;26.000;2022-09-12T05:14:14;19.80;82.10
24426;DHT22;12611;44.446;26.000;2022-09-12T05:16:43;19.80;82.10
24426;DHT22;12611;44.446;26.000;2022-09-12T05:19:15;19.80;82.00
24426;DHT22;12611;44.446;26.000;2022-09-12T05:21:44;19.90;82.00
24426;DHT22;12611;44.446;26.000;2022-09-12T05:24:12;19.90;81.90
24426;DHT22;12611;44.446;26.000;2022-09-12T05:26:40;19.90;82.60
24426;DHT22;12611;44.446;26.000;2022-09-12T05:29:09;19.90;81.60
24426;DHT22;12611;44.446;26.000;2022-09-12T05:31:40;20.00;81.30
24426;DHT22;12611;44.446;26.000;2022-09-12T05:34:09;20.00;82.00
24426;DHT22;12611;44.446;26.000;2022-09-12T05:36:38;20.00;81.20
24426;DHT22;12611;44.446;26.000;2022-09-12T05:39:07;20.10;81.50
24426;DHT22;12611;44.446;26.000;2022-09-12T05:41:36;20.10;81.80
24426;DHT22;12611;44.446;26.000;2022-09-12T05:44:05;20.10;81.80
24426;DHT22;12611;44.446;26.000;2022-09-12T05:46:36;20.20;81.90
24426;DHT22;12611;44.446;26.000;2022-09-12T05:49:08;20.10;81.80
24426;DHT22;12611;44.446;26.000;2022-09-12T05:51:38;20.20;81.80
24426;DHT22;12611;44.446;26.000;2022-09-12T05:54:10;20.20;81.50
24426;DHT22;12611;44.446;26.000;2022-09-12T05:56:41;20.20;81.40
24426;DHT22;12611;44.446;26.000;2022-09-12T05:59:11;20.30;81.20
24426;DHT22;12611;44.446;26.000;2022-09-12T06:01:40;20.40;80.90
24426;DHT22;12611;44.446;26.000;2022-09-12T06:04:11;20.40;80.90
24426;DHT22;12611;44.446;26.000;2022-09-12T06:06:41;20.40;81.00
24426;DHT22;12611;44.446;26.000;2022-09-12T06:09:12;20.50;81.10
24426;DHT22;12611;44.446;26.000;2022-09-12T06:11:41;20.50;81.10
24426;DHT22;12611;44.446;26.000;2022-09-12T06:14:11;20.50;81.00
24426;DHT22;12611;44.446;26.000;2022-09-12T06:16:40;20.60;81.00
24426;DHT22;12611;44.446;26.000;2022-09-12T06:19:14;20.70;81.10
24426;DHT22;12611;44.446;26.000;2022-09-12T06:21:43;20.70;81.10
24426;DHT22;12611;44.446;26.000;2022-09-12T06:24:11;20.70;81.00
24426;DHT22;12611;44.446;26.000;2022-09-12T06:26:40;20.80;81.00
24426;DHT22;12611;44.446;26.000;2022-09-12T06:29:09;20.90;81.00
24426;DHT22;12611;44.446;26.000;2022-09-12T06:31:40;21.00;80.70
24426;DHT22;12611;44.446;26.000;2022-09-12T06:34:12;21.10;80.50
24426;DHT22;12611;44.446;26.000;2022-09-12T06:36:42;21.20;80.50
24426;DHT22;12611;44.446;26.000;2022-09-12T06:39:12;21.30;80.40
24426;DHT22;12611;44.446;26.000;2022-09-12T06:41:41;21.40;80.10
24426;DHT22;12611;44.446;26.000;2022-09-12T06:44:18;21.50;79.60
24426;DHT22;12611;44.446;26.000;2022-09-12T06:46:49;21.60;79.30
24426;DHT22;12611;44.446;26.000;2022-09-12T06:49:20;21.70;78.60
24426;DHT22;12611;44.446;26.000;2022-09-12T06:51:49;21.70;78.10
24426;DHT22;12611;44.446;26.000;2022-09-12T06:54:17;21.70;78.30
24426;DHT22;12611;44.446;26.000;2022-09-12T06:56:45;21.80;78.10
24426;DHT22;12611;44.446;26.000;2022-09-12T06:59:14;21.90;78.00
24426;DHT22;12611;44.446;26.000;2022-09-12T07:01:42;21.90;76.80
24426;DHT22;12611;44.446;26.000;2022-09-12T07:04:10;21.90;75.80
24426;DHT22;12611;44.446;26.000;2022-09-12T07:06:41;21.90;76.00
24426;DHT22;12611;44.446;26.000;2022-09-12T07:09:12;22.00;75.30
24426;DHT22;12611;44.446;26.000;2022-09-12T07:11:43;22.00;74.90
24426;DHT22;12611;44.446;26.000;2022-09-12T07:14:12;22.00;74.60
24426;DHT22;12611;44.446;26.000;2022-09-12T07:16:41;22.00;75.30
24426;DHT22;12611;44.446;26.000;2022-09-12T07:19:10;22.00;74.40
24426;DHT22;12611;44.446;26.000;2022-09-12T07:21:39;22.10;74.40
24426;DHT22;12611;44.446;26.000;2022-09-12T07:24:08;22.10;74.60
24426;DHT22;12611;44.446;26.000;2022-09-12T07:26:38;22.20;75.00
24426;DHT22;12611;44.446;26.000;2022-09-12T07:29:12;22.30;75.20
24426;DHT22;12611;44.446;26.000;2022-09-12T07:32:02;22.30;75.20
24426;DHT22;12611;44.446;26.000;2022-09-12T07:34:31;22.40;75.00
24426;DHT22;12611;44.446;26.000;2022-09-12T07:37:01;22.50;74.90
24426;DHT22;12611;44.446;26.000;2022-09-12T07:39:29;22.60;74.60
24426;DHT22;12611;44.446;26.000;2022-09-12T07:41:58;22.60;73.90
24426;DHT22;12611;44.446;26.000;2022-09-12T07:44:27;22.70;73.80
24426;DHT22;12611;44.446;26.000;2022-09-12T07:46:55;22.80;74.40
24426;DHT22;12611;44.446;26.000;2022-09-12T07:49:23;22.80;72.90
24426;DHT22;12611;44.446;26.000;2022-09-12T07:51:52;22.90;72.90
24426;DHT22;12611;44.446;26.000;2022-09-12T07:54:21;23.00;72.70
24426;DHT22;12611;44.446;26.000;2022-09-12T07:56:53;23.00;72.20
24426;DHT22;12611;44.446;26.000;2022-09-12T07:59:21;23.10;72.00
24426;DHT22;12611;44.446;26.000;2022-09-12T08:02:12;23.10;72.10
24426;DHT22;12611;44.446;26.000;2022-09-12T08:04:44;23.20;71.90
24426;DHT22;12611;44.446;26.000;2022-09-12T08:07:12;23.20;70.10
24426;DHT22;12611;44.446;26.000;2022-09-12T08:09:42;23.20;68.90
24426;DHT22;12611;44.446;26.000;2022-09-12T08:12:10;23.30;68.70
24426;DHT22;12611;44.446;26.000;2022-09-12T08:14:38;23.30;67.60
24426;DHT22;12611;44.446;26.000;2022-09-12T08:17:07;23.30;67.80
24426;DHT22;12611;44.446;26.000;2022-09-12T08:19:35;23.40;67.70
24426;DHT22;12611;44.446;26.000;2022-09-12T08:22:04;23.50;68.10
24426;DHT22;12611;44.446;26.000;2022-09-12T08:24:32;23.60;67.60
24426;DHT22;12611;44.446;26.000;2022-09-12T08:27:02;23.60;67.50
24426;DHT22;12611;44.446;26.000;2022-09-12T08:29:30;23.70;66.80
24426;DHT22;12611;44.446;26.000;2022-09-12T08:31:58;23.70;66.30
24426;DHT22;12611;44.446;26.000;2022-09-12T08:34:27;23.70;65.40
24426;DHT22;12611;44.446;26.000;2022-09-12T08:36:55;23.80;64.70
24426;DHT22;12611;44.446;26.000;2022-09-12T08:39:23;23.80;64.90
24426;DHT22;12611;44.446;26.000;2022-09-12T08:41:57;23.90;64.90
24426;DHT22;12611;44.446;26.000;2022-09-12T08:44:52;23.90;64.60
24426;DHT22;12611;44.446;26.000;2022-09-12T08:47:28;24.00;64.70
24426;DHT22;12611;44.446;26.000;2022-09-12T08:50:09;24.10;64.50
24426;DHT22;12611;44.446;26.000;2022-09-12T08:52:44;24.10;64.30
24426;DHT22;12611;44.446;26.000;2022-09-12T08:55:28;24.20;64.10
24426;DHT22;12611;44.446;26.000;2022-09-12T08:57:58;24.30;64.50
24426;DHT22;12611;44.446;26.000;2022-09-12T09:00:35;24.30;63.60
24426;DHT22;12611;44.446;26.000;2022-09-12T09:06:12;24.40;62.00
24426;DHT22;12611;44.446;26.000;2022-09-12T09:08:53;24.40;61.60
24426;DHT22;12611;44.446;26.000;2022-09-12T09:11:37;24.50;61.60
24426;DHT22;12611;44.446;26.000;2022-09-12T09:14:35;24.50;61.80
24426;DHT22;12611;44.446;26.000;2022-09-12T09:17:23;24.60;62.10
24426;DHT22;12611;44.446;26.000;2022-09-12T09:19:58;24.60;61.90
24426;DHT22;12611;44.446;26.000;2022-09-12T09:22:39;24.70;61.90
24426;DHT22;12611;44.446;26.000;2022-09-12T09:25:15;24.70;61.10
24426;DHT22;12611;44.446;26.000;2022-09-12T09:27:52;24.80;60.90
24426;DHT22;12611;44.446;26.000;2022-09-12T09:30:24;24.80;61.30
24426;DHT22;12611;44.446;26.000;2022-09-12T09:32:55;24.90;61.00
24426;DHT22;12611;44.446;26.000;2022-09-12T09:35:31;24.90;60.00
24426;DHT22;12611;44.446;26.000;2022-09-12T09:38:21;25.00;58.40
24426;DHT22;12611;44.446;26.000;2022-09-12T09:40:59;25.00;58.90
24426;DHT22;12611;44.446;26.000;2022-09-12T09:43:30;25.10;58.20
24426;DHT22;12611;44.446;26.000;2022-09-12T09:45:58;25.10;58.30
24426;DHT22;12611;44.446;26.000;2022-09-12T09:48:30;25.20;58.60
24426;DHT22;12611;44.446;26.000;2022-09-12T09:51:01;25.20;58.40
24426;DHT22;12611;44.446;26.000;2022-09-12T09:53:35;25.30;58.50
24426;DHT22;12611;44.446;26.000;2022-09-12T09:56:07;25.40;58.70
24426;DHT22;12611;44.446;26.000;2022-09-12T09:58:37;25.40;58.80
24426;DHT22;12611;44.446;26.000;2022-09-12T10:01:12;25.50;58.60
24426;DHT22;12611;44.446;26.000;2022-09-12T10:03:49;25.50;58.50
24426;DHT22;12611;44.446;26.000;2022-09-12T10:06:28;25.60;58.50
24426;DHT22;12611;44.446;26.000;2022-09-12T10:09:16;25.70;58.20
24426;DHT22;12611;44.446;26.000;2022-09-12T10:11:46;25.70;58.00
24426;DHT22;12611;44.446;26.000;2022-09-12T10:14:36;25.80;57.30
24426;DHT22;12611;44.446;26.000;2022-09-12T10:17:26;25.90;56.50
24426;DHT22;12611;44.446;26.000;2022-09-12T10:20:01;25.90;56.30
24426;DHT22;12611;44.446;26.000;2022-09-12T10:22:48;26.00;56.50
24426;DHT22;12611;44.446;26.000;2022-09-12T10:25:18;26.10;55.40
24426;DHT22;12611;44.446;26.000;2022-09-12T10:27:53;26.10;55.70
24426;DHT22;12611;44.446;26.000;2022-09-12T10:30:24;26.10;55.90
24426;DHT22;12611;44.446;26.000;2022-09-12T10:33:03;26.10;55.60
24426;DHT22;12611;44.446;26.000;2022-09-12T10:35:44;26.10;55.60
24426;DHT22;12611;44.446;26.000;2022-09-12T10:38:20;26.30;55.80
24426;DHT22;12611;44.446;26.000;2022-09-12T10:40:56;26.30;55.40
24426;DHT22;12611;44.446;26.000;2022-09-12T10:43:29;26.30;54.80
24426;DHT22;12611;44.446;26.000;2022-09-12T10:46:19;26.50;54.10
24426;DHT22;12611;44.446;26.000;2022-09-12T10:48:49;26.50;54.70
24426;DHT22;12611;44.446;26.000;2022-09-12T10:51:27;26.60;53.80
24426;DHT22;12611;44.446;26.000;2022-09-12T10:53:57;26.60;54.30
24426;DHT22;12611;44.446;26.000;2022-09-12T10:56:29;26.60;54.50
24426;DHT22;12611;44.446;26.000;2022-09-12T10:59:17;26.60;54.40
24426;DHT22;12611;44.446;26.000;2022-09-12T11:01:54;26.60;53.20
24426;DHT22;12611;44.446;26.000;2022-09-12T11:04:32;26.60;52.80
24426;DHT22;12611;44.446;26.000;2022-09-12T11:07:34;26.60;53.10
24426;DHT22;12611;44.446;26.000;2022-09-12T11:10:17;26.70;52.90
24426;DHT22;12611;44.446;26.000;2022-09-12T11:12:52;26.70;53.30
24426;DHT22;12611;44.446;26.000;2022-09-12T11:15:35;26.60;50.90
24426;DHT22;12611;44.446;26.000;2022-09-12T11:18:13;26.70;51.20
24426;DHT22;12611;44.446;26.000;2022-09-12T11:23:58;26.80;51.50
24426;DHT22;12611;44.446;26.000;2022-09-12T11:26:40;26.80;52.10
24426;DHT22;12611;44.446;26.000;2022-09-12T11:29:16;26.90;52.20
24426;DHT22;12611;44.446;26.000;2022-09-12T11:32:06;27.00;51.70
24426;DHT22;12611;44.446;26.000;2022-09-12T11:34:46;27.10;51.20
24426;DHT22;12611;44.446;26.000;2022-09-12T11:37:39;27.10;51.00
24426;DHT22;12611;44.446;26.000;2022-09-12T11:40:24;27.20;50.90
24426;DHT22;12611;44.446;26.000;2022-09-12T11:42:58;27.20;50.30
24426;DHT22;12611;44.446;26.000;2022-09-12T11:45:31;27.20;50.40
24426;DHT22;12611;44.446;26.000;2022-09-12T11:48:06;27.20;50.00
24426;DHT22;12611;44.446;26.000;2022-09-12T11:50:37;27.30;49.20
24426;DHT22;12611;44.446;26.000;2022-09-12T11:53:13;27.20;49.70
24426;DHT22;12611;44.446;26.000;2022-09-12T11:55:52;27.30;50.20
24426;DHT22;12611;44.446;26.000;2022-09-12T11:58:25;27.30;49.70
24426;DHT22;12611;44.446;26.000;2022-09-12T12:00:58;27.30;49.90
24426;DHT22;12611;44.446;26.000;2022-09-12T12:03:33;27.30;49.40
24426;DHT22;12611;44.446;26.000;2022-09-12T12:06:09;27.30;49.10
24426;DHT22;12611;44.446;26.000;2022-09-12T12:08:39;27.30;48.90
24426;DHT22;12611;44.446;26.000;2022-09-12T12:11:11;27.30;48.60
24426;DHT22;12611;44.446;26.000;2022-09-12T12:13:45;27.40;48.40
24426;DHT22;12611;44.446;26.000;2022-09-12T12:16:19;27.40;47.90
24426;DHT22;12611;44.446;26.000;2022-09-12T12:18:53;27.50;47.80
24426;DHT22;12611;44.446;26.000;2022-09-12T12:21:37;27.60;47.60
24426;DHT22;12611;44.446;26.000;2022-09-12T12:24:16;27.60;47.60
24426;DHT22;12611;44.446;26.000;2022-09-12T12:26:59;27.60;47.60
24426;DHT22;12611;44.446;26.000;2022-09-12T12:29:52;27.60;47.70
24426;DHT22;12611;44.446;26.000;2022-09-12T12:32:24;27.50;48.50
24426;DHT22;12611;44.446;26.000;2022-09-12T12:35:35;27.60;48.50
24426;DHT22;12611;44.446;26.000;2022-09-12T12:38:25;27.60;48.70
24426;DHT22;12611;44.446;26.000;2022-09-12T12:44:46;27.50;48.50
24426;DHT22;12611;44.446;26.000;2022-09-12T12:47:18;27.50;49.20
24426;DHT22;12611;44.446;26.000;2022-09-12T12:49:52;27.40;49.10
24426;DHT22;12611;44.446;26.000;2022-09-12T12:52:22;27.30;50.50
24426;DHT22;12611;44.446;26.000;2022-09-12T12:54:55;27.30;51.50
24426;DHT22;12611;44.446;26.000;2022-09-12T12:57:39;27.10;52.60
24426;DHT22;12611;44.446;26.000;2022-09-12T13:00:30;27.10;54.40
24426;DHT22;12611;44.446;26.000;2022-09-12T13:03:01;27.00;55.70
24426;DHT22;12611;44.446;26.000;2022-09-12T13:05:39;26.80;56.40
24426;DHT22;12611;44.446;26.000;2022-09-12T13:08:09;26.80;57.00
24426;DHT22;12611;44.446;26.000;2022-09-12T13:10:48;26.80;57.60
24426;DHT22;12611;44.446;26.000;2022-09-12T13:13:29;26.60;57.80
24426;DHT22;12611;44.446;26.000;2022-09-12T13:16:02;26.50;59.10
24426;DHT22;12611;44.446;26.000;2022-09-12T13:18:39;26.50;58.90
24426;DHT22;12611;44.446;26.000;2022-09-12T13:21:10;26.40;59.10
24426;DHT22;12611;44.446;26.000;2022-09-12T13:23:40;26.30;58.90
24426;DHT22;12611;44.446;26.000;2022-09-12T13:26:11;26.10;58.40
24426;DHT22;12611;44.446;26.000;2022-09-12T13:28:40;26.00;58.20
24426;DHT22;12611;44.446;26.000;2022-09-12T13:31:22;25.90;58.50
24426;DHT22;12611;44.446;26.000;2022-09-12T13:33:53;25.90;58.40
24426;DHT22;12611;44.446;26.000;2022-09-12T13:36:39;25.80;58.70
24426;DHT22;12611;44.446;26.000;2022-09-12T13:39:16;25.70;58.90
24426;DHT22;12611;44.446;26.000;2022-09-12T13:45:05;25.60;59.10
24426;DHT22;12611;44.446;26.000;2022-09-12T13:47:41;25.50;59.20
24426;DHT22;12611;44.446;26.000;2022-09-12T13:50:17;25.50;59.20
24426;DHT22;12611;44.446;26.000;2022-09-12T13:52:49;25.50;59.20
24426;DHT22;12611;44.446;26.000;2022-09-12T13:55:28;25.60;59.60
24426;DHT22;12611;44.446;26.000;2022-09-12T13:57:59;25.60;59.60
24426;DHT22;12611;44.446;26.000;2022-09-12T14:00:30;25.80;59.80
24426;DHT22;12611;44.446;26.000;2022-09-12T14:03:23;25.90;59.80
24426;DHT22;12611;44.446;26.000;2022-09-12T14:06:10;26.30;59.50
24426;DHT22;12611;44.446;26.000;2022-09-12T14:08:43;26.40;59.00
24426;DHT22;12611;44.446;26.000;2022-09-12T14:11:20;26.30;59.40
24426;DHT22;12611;44.446;26.000;2022-09-12T14:13:51;26.10;60.00
24426;DHT22;12611;44.446;26.000;2022-09-12T14:16:20;26.00;60.30
24426;DHT22;12611;44.446;26.000;2022-09-12T14:18:50;25.90;60.20
24426;DHT22;12611;44.446;26.000;2022-09-12T14:21:29;25.80;60.40
24426;DHT22;12611;44.446;26.000;2022-09-12T14:24:00;25.70;60.40
24426;DHT22;12611;44.446;26.000;2022-09-12T14:26:33;25.60;60.40
24426;DHT22;12611;44.446;26.000;2022-09-12T14:29:05;25.60;60.50
24426;DHT22;12611;44.446;26.000;2022-09-12T14:31:35;25.50;60.50
24426;DHT22;12611;44.446;26.000;2022-09-12T14:34:11;25.40;60.50
24426;DHT22;12611;44.446;26.000;2022-09-12T14:36:44;25.40;60.50
24426;DHT22;12611;44.446;26.000;2022-09-12T14:39:23;25.40;60.50
24426;DHT22;12611;44.446;26.000;2022-09-12T14:42:02;25.40;60.70
24426;DHT22;12611;44.446;26.000;2022-09-12T14:44:32;25.40;60.70
24426;DHT22;12611;44.446;26.000;2022-09-12T14:47:11;25.30;60.70
24426;DHT22;12611;44.446;26.000;2022-09-12T14:49:41;25.30;60.80
24426;DHT22;12611;44.446;26.000;2022-09-12T14:52:25;25.30;60.80
24426;DHT22;12611;44.446;26.000;2022-09-12T14:54:56;25.30;61.00
24426;DHT22;12611;44.446;26.000;2022-09-12T14:57:33;25.20;61.00
24426;DHT22;12611;44.446;26.000;2022-09-12T15:00:17;25.20;61.00
24426;DHT22;12611;44.446;26.000;2022-09-12T15:02:47;25.20;61.40
24426;DHT22;12611;44.446;26.000;2022-09-12T15:05:20;25.20;61.50
24426;DHT22;12611;44.446;26.000;2022-09-12T15:07:59;25.20;61.60
24426;DHT22;12611;44.446;26.000;2022-09-12T15:10:29;25.10;61.60
24426;DHT22;12611;44.446;26.000;2022-09-12T15:13:20;25.10;61.60
24426;DHT22;12611;44.446;26.000;2022-09-12T15:15:50;25.10;61.60
24426;DHT22;12611;44.446;26.000;2022-09-12T15:18:20;25.20;61.60
24426;DHT22;12611;44.446;26.000;2022-09-12T15:20:53;25.20;61.60
24426;DHT22;12611;44.446;26.000;2022-09-12T15:23:40;25.20;61.80
24426;DHT22;12611;44.446;26.000;2022-09-12T15:26:10;25.20;61.80
24426;DHT22;12611;44.446;26.000;2022-09-12T15:28:39;25.20;61.80
24426;DHT22;12611;44.446;26.000;2022-09-12T15:31:12;25.20;62.10
24426;DHT22;12611;44.446;26.000;2022-09-12T15:33:42;25.10;62.20
24426;DHT22;12611;44.446;26.000;2022-09-12T15:36:15;25.10;62.30
24426;DHT22;12611;44.446;26.000;2022-09-12T15:38:44;25.00;62.60
24426;DHT22;12611;44.446;26.000;2022-09-12T15:41:15;25.00;62.40
24426;DHT22;12611;44.446;26.000;2022-09-12T15:43:43;25.00;62.30
24426;DHT22;12611;44.446;26.000;2022-09-12T15:46:13;24.90;62.10
24426;DHT22;12611;44.446;26.000;2022-09-12T15:48:42;24.90;62.20
24426;DHT22;12611;44.446;26.000;2022-09-12T15:51:13;24.90;62.00
24426;DHT22;12611;44.446;26.000;2022-09-12T15:53:42;24.90;61.60
24426;DHT22;12611;44.446;26.000;2022-09-12T15:56:10;24.80;61.50
24426;DHT22;12611;44.446;26.000;2022-09-12T15:58:39;24.80;61.40
24426;DHT22;12611;44.446;26.000;2022-09-12T16:01:23;24.80;61.10
24426;DHT22;12611;44.446;26.000;2022-09-12T16:03:52;24.70;61.00
24426;DHT22;12611;44.446;26.000;2022-09-12T16:06:22;24.70;60.80
24426;DHT22;12611;44.446;26.000;2022-09-12T16:08:50;24.70;60.80
24426;DHT22;12611;44.446;26.000;2022-09-12T16:11:20;24.60;60.60
24426;DHT22;12611;44.446;26.000;2022-09-12T16:13:50;24.60;60.80
24426;DHT22;12611;44.446;26.000;2022-09-12T16:16:19;24.60;60.80